sensor_id;sensor_type;location;lat;lon;timestamp;pressure;altitude;pressure_sealevel;temperature;humidity
29549;BME280;16487;53.094;8.800;2023-04-28T00:01:53;100657.13;;;5.67;100.00
29549;BME280;16487;53.094;8.800;2023-04-28T00:04:22;100651.97;;;5.69;100.00
29549;BME280;16487;53.094;8.800;2023-04-28T00:06:50;100648.44;;;5.65;100.00
29549;BME280;16487;53.094;8.800;2023-04-28T00:09:17;100648.38;;;5.72;100.00
29549;BME280;16487;53.094;8.800;2023-04-28T00:11:45;100652.78;;;5.66;100.00
29549;BME280;16487;53.094;8.800;2023-04-28T00:14:13;100642.47;;;5.70;100.00
29549;BME280;16487;53.094;8.800;2023-04-28T00:16:40;100640.94;;;5.65;100.00
29549;BME280;16487;53.094;8.800;2023-04-28T00:19:08;100642.56;;;5.59;100.00
29549;BME280;16487;53.094;8.800;2023-04-28T00:21:37;100635.91;;;5.57;100.00
29549;BME280;16487;53.094;8.800;2023-04-28T00:24:05;100633.47;;;5.62;100.00
29549;BME280;16487;53.094;8.800;2023-04-28T00:26:32;100627.63;;;5.57;100.00
29549;BME280;16487;53.094;8.800;2023-04-28T00:29:00;100625.22;;;5.59;100.00
29549;BME280;16487;53.094;8.800;2023-04-28T00:31:27;100628.78;;;5.56;100.00
29549;BME280;16487;53.094;8.800;2023-04-28T00:33:54;100632.78;;;5.55;100.00
29549;BME280;16487;53.094;8.800;2023-04-28T00:36:21;100627.66;;;5.53;100.00
29549;BME280;16487;53.094;8.800;2023-04-28T00:38:50;100629.25;;;5.51;100.00
29549;BME280;16487;53.094;8.800;2023-04-28T00:41:20;100628.44;;;5.54;100.00
29549;BME280;16487;53.094;8.800;2023-04-28T00:43:48;100628.06;;;5.52;100.00
29549;BME280;16487;53.094;8.800;2023-04-28T00:46:20;100630.88;;;5.48;100.00
29549;BME280;16487;53.094;8.800;2023-04-28T00:48:48;100623.00;;;5.47;100.00
29549;BME280;16487;53.094;8.800;2023-04-28T00:51:16;100624.22;;;5.42;100.00
29549;BME280;16487;53.094;8.800;2023-04-28T00:53:44;100621.81;;;5.44;100.00
29549;BME280;16487;53.094;8.800;2023-04-28T00:56:13;100615.19;;;5.38;100.00
29549;BME280;16487;53.094;8.800;2023-04-28T00:58:42;100611.16;;;5.46;100.00
29549;BME280;16487;53.094;8.800;2023-04-28T01:01:09;100612.03;;;5.40;100.00
29549;BME280;16487;53.094;8.800;2023-04-28T01:03:38;100611.97;;;5.43;100.00
29549;BME280;16487;53.094;8.800;2023-04-28T01:06:08;100608.91;;;5.34;100.00
29549;BME280;16487;53.094;8.800;2023-04-28T01:08:37;100609.69;;;5.35;100.00
29549;BME280;16487;53.094;8.800;2023-04-28T01:11:08;100610.88;;;5.34;100.00
29549;BME280;16487;53.094;8.800;2023-04-28T01:13:59;100607.00;;;5.28;100.00
29549;BME280;16487;53.094;8.800;2023-04-28T01:16:30;100601.50;;;5.28;100.00
29549;BME280;16487;53.094;8.800;2023-04-28T01:18:59;100603.41;;;5.31;100.00
29549;BME280;16487;53.094;8.800;2023-04-28T01:21:29;100605.06;;;5.25;100.00
29549;BME280;16487;53.094;8.800;2023-04-28T01:23:58;100603.53;;;5.20;100.00
29549;BME280;16487;53.094;8.800;2023-04-28T01:26:27;100594.00;;;5.25;100.00
29549;BME280;16487;53.094;8.800;2023-04-28T01:28:54;100599.53;;;5.25;100.00
29549;BME280;16487;53.094;8.800;2023-04-28T01:31:22;100597.22;;;5.20;100.00
29549;BME280;16487;53.094;8.800;2023-04-28T01:33:49;100581.41;;;5.24;100.00
29549;BME280;16487;53.094;8.800;2023-04-28T01:36:16;100585.75;;;5.21;100.00
29549;BME280;16487;53.094;8.800;2023-04-28T01:38:43;100580.75;;;5.09;100.00
29549;BME280;16487;53.094;8.800;2023-04-28T01:41:14;100582.28;;;5.14;100.00
29549;BME280;16487;53.094;8.800;2023-04-28T01:43:41;100575.97;;;5.13;100.00
29549;BME280;16487;53.094;8.800;2023-04-28T01:46:09;100574.88;;;5.07;100.00
29549;BME280;16487;53.094;8.800;2023-04-28T01:48:36;100570.53;;;5.06;100.00
29549;BME280;16487;53.094;8.800;2023-04-28T01:51:03;100566.25;;;5.02;100.00
29549;BME280;16487;53.094;8.800;2023-04-28T01:53:30;100565.06;;;4.99;100.00
29549;BME280;16487;53.094;8.800;2023-04-28T01:55:58;100559.53;;;4.99;100.00
29549;BME280;16487;53.094;8.800;2023-04-28T01:58:27;100552.88;;;4.97;100.00
29549;BME280;16487;53.094;8.800;2023-04-28T02:00:55;100554.84;;;4.96;100.00
29549;BME280;16487;53.094;8.800;2023-04-28T02:03:22;100546.16;;;4.98;100.00
29549;BME280;16487;53.094;8.800;2023-04-28T02:05:50;100545.31;;;5.01;100.00
29549;BME280;16487;53.094;8.800;2023-04-28T02:08:17;100548.56;;;4.92;100.00
29549;BME280;16487;53.094;8.800;2023-04-28T02:10:45;100539.06;;;4.97;100.00
29549;BME280;16487;53.094;8.800;2023-04-28T02:13:12;100535.19;;;4.91;100.00
29549;BME280;16487;53.094;8.800;2023-04-28T02:15:41;100542.63;;;4.94;100.00
29549;BME280;16487;53.094;8.800;2023-04-28T02:18:09;100547.72;;;4.99;100.00
29549;BME280;16487;53.094;8.800;2023-04-28T02:20:39;100546.22;;;4.91;100.00
29549;BME280;16487;53.094;8.800;2023-04-28T02:23:07;100540.31;;;4.89;100.00
29549;BME280;16487;53.094;8.800;2023-04-28T02:25:35;100543.09;;;4.89;100.00
29549;BME280;16487;53.094;8.800;2023-04-28T02:28:03;100550.19;;;4.90;100.00
29549;BME280;16487;53.094;8.800;2023-04-28T02:30:33;100540.25;;;4.96;100.00
29549;BME280;16487;53.094;8.800;2023-04-28T02:33:02;100543.47;;;4.91;100.00
29549;BME280;16487;53.094;8.800;2023-04-28T02:35:30;100557.69;;;4.89;100.00
29549;BME280;16487;53.094;8.800;2023-04-28T02:37:57;100545.84;;;4.89;100.00
29549;BME280;16487;53.094;8.800;2023-04-28T02:40:25;100547.84;;;4.88;100.00
29549;BME280;16487;53.094;8.800;2023-04-28T02:42:52;100556.47;;;4.90;100.00
29549;BME280;16487;53.094;8.800;2023-04-28T02:45:19;100557.19;;;4.98;100.00
29549;BME280;16487;53.094;8.800;2023-04-28T02:47:47;100559.66;;;4.89;100.00
29549;BME280;16487;53.094;8.800;2023-04-28T02:50:17;100560.41;;;4.93;100.00
29549;BME280;16487;53.094;8.800;2023-04-28T02:52:45;100561.22;;;4.90;100.00
29549;BME280;16487;53.094;8.800;2023-04-28T02:55:15;100556.09;;;4.92;100.00
29549;BME280;16487;53.094;8.800;2023-04-28T02:57:42;100554.94;;;4.86;100.00
29549;BME280;16487;53.094;8.800;2023-04-28T03:00:11;100555.78;;;4.83;100.00
29549;BME280;16487;53.094;8.800;2023-04-28T03:02:45;100555.81;;;4.79;100.00
29549;BME280;16487;53.094;8.800;2023-04-28T03:05:13;100562.84;;;4.84;100.00
29549;BME280;16487;53.094;8.800;2023-04-28T03:07:41;100565.25;;;4.78;100.00
29549;BME280;16487;53.094;8.800;2023-04-28T03:10:09;100557.41;;;4.77;100.00
29549;BME280;16487;53.094;8.800;2023-04-28T03:12:37;100562.16;;;4.76;100.00
29549;BME280;16487;53.094;8.800;2023-04-28T03:15:06;100566.13;;;4.72;100.00
29549;BME280;16487;53.094;8.800;2023-04-28T03:17:34;100566.56;;;4.66;100.00
29549;BME280;16487;53.094;8.800;2023-04-28T03:20:02;100555.06;;;4.72;100.00
29549;BME280;16487;53.094;8.800;2023-04-28T03:22:30;100560.66;;;4.64;100.00
29549;BME280;16487;53.094;8.800;2023-04-28T03:24:59;100553.56;;;4.67;100.00
29549;BME280;16487;53.094;8.800;2023-04-28T03:27:28;100546.13;;;4.60;100.00
29549;BME280;16487;53.094;8.800;2023-04-28T03:29:56;100544.91;;;4.61;100.00
29549;BME280;16487;53.094;8.800;2023-04-28T03:32:23;100543.38;;;4.60;100.00
29549;BME280;16487;53.094;8.800;2023-04-28T03:34:51;100542.97;;;4.62;100.00
29549;BME280;16487;53.094;8.800;2023-04-28T03:37:19;100544.91;;;4.61;100.00
29549;BME280;16487;53.094;8.800;2023-04-28T03:39:46;100550.44;;;4.61;100.00
29549;BME280;16487;53.094;8.800;2023-04-28T03:42:15;100546.91;;;4.57;100.00
29549;BME280;16487;53.094;8.800;2023-04-28T03:45:17;100537.84;;;4.60;100.00
29549;BME280;16487;53.094;8.800;2023-04-28T03:47:45;100546.47;;;4.62;100.00
29549;BME280;16487;53.094;8.800;2023-04-28T03:50:12;100532.25;;;4.67;100.00
29549;BME280;16487;53.094;8.800;2023-04-28T03:52:40;100536.19;;;4.66;100.00
29549;BME280;16487;53.094;8.800;2023-04-28T03:55:08;100551.94;;;4.69;100.00
29549;BME280;16487;53.094;8.800;2023-04-28T03:57:36;100554.97;;;4.82;100.00
29549;BME280;16487;53.094;8.800;2023-04-28T04:00:05;100563.75;;;4.74;100.00
29549;BME280;16487;53.094;8.800;2023-04-28T04:02:41;100574.72;;;4.81;100.00
29549;BME280;16487;53.094;8.800;2023-04-28T04:05:09;100601.47;;;4.87;100.00
29549;BME280;16487;53.094;8.800;2023-04-28T04:07:36;100612.50;;;4.91;100.00
29549;BME280;16487;53.094;8.800;2023-04-28T04:10:05;100621.22;;;4.86;100.00
29549;BME280;16487;53.094;8.800;2023-04-28T04:12:37;100624.34;;;4.88;100.00
29549;BME280;16487;53.094;8.800;2023-04-28T04:15:06;100639.31;;;4.90;100.00
29549;BME280;16487;53.094;8.800;2023-04-28T04:17:34;100656.28;;;4.89;100.00
29549;BME280;16487;53.094;8.800;2023-04-28T04:20:01;100661.44;;;4.87;100.00
29549;BME280;16487;53.094;8.800;2023-04-28T04:22:29;100659.03;;;4.89;100.00
29549;BME280;16487;53.094;8.800;2023-04-28T04:24:56;100663.78;;;4.92;100.00
29549;BME280;16487;53.094;8.800;2023-04-28T04:27:25;100667.28;;;4.96;100.00
29549;BME280;16487;53.094;8.800;2023-04-28T04:29:54;100686.59;;;4.96;100.00
29549;BME280;16487;53.094;8.800;2023-04-28T04:32:22;100691.31;;;4.99;100.00
29549;BME280;16487;53.094;8.800;2023-04-28T04:34:49;100705.50;;;5.01;100.00
29549;BME280;16487;53.094;8.800;2023-04-28T04:37:17;100723.22;;;5.07;100.00
29549;BME280;16487;53.094;8.800;2023-04-28T04:39:51;100737.41;;;5.09;100.00
29549;BME280;16487;53.094;8.800;2023-04-28T04:42:19;100735.78;;;5.15;100.00
29549;BME280;16487;53.094;8.800;2023-04-28T04:45:23;100752.31;;;5.18;100.00
29549;BME280;16487;53.094;8.800;2023-04-28T04:47:51;100773.22;;;5.23;100.00
29549;BME280;16487;53.094;8.800;2023-04-28T04:50:18;100786.59;;;5.28;100.00
29549;BME280;16487;53.094;8.800;2023-04-28T04:52:46;100828.44;;;5.30;100.00
29549;BME280;16487;53.094;8.800;2023-04-28T04:55:13;100837.84;;;5.36;100.00
29549;BME280;16487;53.094;8.800;2023-04-28T04:57:41;100879.69;;;5.38;100.00
29549;BME280;16487;53.094;8.800;2023-04-28T05:00:17;100907.69;;;5.43;100.00
29549;BME280;16487;53.094;8.800;2023-04-28T05:02:47;100931.34;;;5.44;100.00
29549;BME280;16487;53.094;8.800;2023-04-28T05:05:17;100934.91;;;5.48;100.00
29549;BME280;16487;53.094;8.800;2023-04-28T05:08:05;100958.94;;;5.51;100.00
29549;BME280;16487;53.094;8.800;2023-04-28T05:10:34;100971.94;;;5.58;100.00
29549;BME280;16487;53.094;8.800;2023-04-28T05:13:03;100986.13;;;5.63;100.00
29549;BME280;16487;53.094;8.800;2023-04-28T05:15:30;101014.56;;;5.64;100.00
29549;BME280;16487;53.094;8.800;2023-04-28T05:18:28;101033.13;;;5.63;100.00
29549;BME280;16487;53.094;8.800;2023-04-28T05:20:56;101047.72;;;5.71;100.00
29549;BME280;16487;53.094;8.800;2023-04-28T05:23:23;101061.09;;;5.79;100.00
29549;BME280;16487;53.094;8.800;2023-04-28T05:25:53;101070.19;;;5.80;100.00
29549;BME280;16487;53.094;8.800;2023-04-28T05:28:20;101090.72;;;5.90;100.00
29549;BME280;16487;53.094;8.800;2023-04-28T05:30:51;101102.13;;;6.02;100.00
29549;BME280;16487;53.094;8.800;2023-04-28T05:33:19;101117.09;;;6.08;100.00
29549;BME280;16487;53.094;8.800;2023-04-28T05:35:48;101132.09;;;6.14;100.00
29549;BME280;16487;53.094;8.800;2023-04-28T05:38:16;101138.69;;;6.31;100.00
29549;BME280;16487;53.094;8.800;2023-04-28T05:40:44;101146.53;;;6.43;100.00
29549;BME280;16487;53.094;8.800;2023-04-28T05:43:12;101157.22;;;6.41;100.00
29549;BME280;16487;53.094;8.800;2023-04-28T05:45:39;101174.16;;;6.53;100.00
29549;BME280;16487;53.094;8.800;2023-04-28T05:48:07;101176.03;;;6.70;100.00
29549;BME280;16487;53.094;8.800;2023-04-28T05:50:34;101184.31;;;6.70;100.00
29549;BME280;16487;53.094;8.800;2023-04-28T05:53:06;101192.53;;;6.84;100.00
29549;BME280;16487;53.094;8.800;2023-04-28T05:55:34;101205.97;;;6.86;100.00
29549;BME280;16487;53.094;8.800;2023-04-28T05:58:01;101210.59;;;7.03;100.00
29549;BME280;16487;53.094;8.800;2023-04-28T06:00:29;101216.06;;;7.14;100.00
29549;BME280;16487;53.094;8.800;2023-04-28T06:02:59;101232.59;;;7.24;100.00
29549;BME280;16487;53.094;8.800;2023-04-28T06:05:26;101243.63;;;7.35;100.00
29549;BME280;16487;53.094;8.800;2023-04-28T06:07:55;101246.28;;;7.49;100.00
29549;BME280;16487;53.094;8.800;2023-04-28T06:10:25;101255.94;;;7.74;100.00
29549;BME280;16487;53.094;8.800;2023-04-28T06:12:52;101261.56;;;7.64;100.00
29549;BME280;16487;53.094;8.800;2023-04-28T06:15:19;101267.81;;;7.75;100.00
29549;BME280;16487;53.094;8.800;2023-04-28T06:17:47;101273.38;;;7.75;100.00
29549;BME280;16487;53.094;8.800;2023-04-28T06:20:15;101282.81;;;7.81;100.00
29549;BME280;16487;53.094;8.800;2023-04-28T06:22:43;101288.91;;;8.06;100.00
29549;BME280;16487;53.094;8.800;2023-04-28T06:25:11;101300.00;;;8.06;100.00
29549;BME280;16487;53.094;8.800;2023-04-28T06:27:45;101307.34;;;8.27;100.00
29549;BME280;16487;53.094;8.800;2023-04-28T06:30:16;101312.94;;;8.20;100.00
29549;BME280;16487;53.094;8.800;2023-04-28T06:32:44;101310.56;;;8.22;100.00
29549;BME280;16487;53.094;8.800;2023-04-28T06:35:12;101316.38;;;8.38;100.00
29549;BME280;16487;53.094;8.800;2023-04-28T06:37:39;101318.97;;;8.52;100.00
29549;BME280;16487;53.094;8.800;2023-04-28T06:40:07;101328.38;;;8.61;100.00
29549;BME280;16487;53.094;8.800;2023-04-28T06:42:36;101336.25;;;8.66;100.00
29549;BME280;16487;53.094;8.800;2023-04-28T06:45:12;101340.28;;;8.62;100.00
29549;BME280;16487;53.094;8.800;2023-04-28T06:47:39;101346.72;;;8.85;100.00
29549;BME280;16487;53.094;8.800;2023-04-28T06:50:09;101352.09;;;8.99;100.00
29549;BME280;16487;53.094;8.800;2023-04-28T06:52:36;101357.94;;;9.08;100.00
29549;BME280;16487;53.094;8.800;2023-04-28T06:55:07;101376.16;;;9.13;100.00
29549;BME280;16487;53.094;8.800;2023-04-28T06:57:34;101374.00;;;9.24;100.00
29549;BME280;16487;53.094;8.800;2023-04-28T07:00:02;101385.34;;;9.63;100.00
29549;BME280;16487;53.094;8.800;2023-04-28T07:02:31;101404.41;;;9.65;100.00
29549;BME280;16487;53.094;8.800;2023-04-28T07:04:58;101406.25;;;10.24;100.00
29549;BME280;16487;53.094;8.800;2023-04-28T07:07:26;101410.00;;;10.14;100.00
29549;BME280;16487;53.094;8.800;2023-04-28T07:09:53;101410.66;;;9.72;100.00
29549;BME280;16487;53.094;8.800;2023-04-28T07:12:21;101411.19;;;9.90;100.00
29549;BME280;16487;53.094;8.800;2023-04-28T07:14:49;101416.75;;;9.90;100.00
29549;BME280;16487;53.094;8.800;2023-04-28T07:17:16;101408.91;;;9.82;100.00
29549;BME280;16487;53.094;8.800;2023-04-28T07:19:45;101414.13;;;10.03;100.00
29549;BME280;16487;53.094;8.800;2023-04-28T07:22:12;101412.25;;;10.23;100.00
29549;BME280;16487;53.094;8.800;2023-04-28T07:24:39;101405.94;;;10.19;100.00
29549;BME280;16487;53.094;8.800;2023-04-28T07:27:08;101417.22;;;10.55;100.00
29549;BME280;16487;53.094;8.800;2023-04-28T07:29:35;101420.50;;;10.50;100.00
29549;BME280;16487;53.094;8.800;2023-04-28T07:32:03;101417.94;;;10.59;100.00
29549;BME280;16487;53.094;8.800;2023-04-28T07:34:33;101431.72;;;10.89;100.00
29549;BME280;16487;53.094;8.800;2023-04-28T07:37:02;101431.38;;;11.06;100.00
29549;BME280;16487;53.094;8.800;2023-04-28T07:39:30;101431.97;;;11.14;100.00
29549;BME280;16487;53.094;8.800;2023-04-28T07:41:58;101436.38;;;11.15;100.00
29549;BME280;16487;53.094;8.800;2023-04-28T07:44:25;101442.31;;;11.52;100.00
29549;BME280;16487;53.094;8.800;2023-04-28T07:46:53;101438.50;;;11.63;100.00
29549;BME280;16487;53.094;8.800;2023-04-28T07:49:20;101440.66;;;11.55;100.00
29549;BME280;16487;53.094;8.800;2023-04-28T07:51:47;101435.16;;;11.51;100.00
29549;BME280;16487;53.094;8.800;2023-04-28T07:54:16;101434.16;;;11.62;100.00
29549;BME280;16487;53.094;8.800;2023-04-28T07:56:44;101427.44;;;11.39;100.00
29549;BME280;16487;53.094;8.800;2023-04-28T07:59:11;101433.50;;;12.06;100.00
29549;BME280;16487;53.094;8.800;2023-04-28T08:01:39;101435.69;;;11.82;100.00
29549;BME280;16487;53.094;8.800;2023-04-28T08:04:06;101431.38;;;11.78;100.00
29549;BME280;16487;53.094;8.800;2023-04-28T08:06:34;101427.56;;;11.88;100.00
29549;BME280;16487;53.094;8.800;2023-04-28T08:09:01;101435.59;;;11.86;100.00
29549;BME280;16487;53.094;8.800;2023-04-28T08:11:30;101425.97;;;12.35;100.00
29549;BME280;16487;53.094;8.800;2023-04-28T08:13:58;101431.03;;;12.40;100.00
29549;BME280;16487;53.094;8.800;2023-04-28T08:16:25;101422.09;;;12.61;100.00
29549;BME280;16487;53.094;8.800;2023-04-28T08:18:53;101421.91;;;12.97;100.00
29549;BME280;16487;53.094;8.800;2023-04-28T08:21:21;101428.09;;;13.04;100.00
29549;BME280;16487;53.094;8.800;2023-04-28T08:23:48;101422.56;;;13.01;100.00
29549;BME280;16487;53.094;8.800;2023-04-28T08:26:15;101422.31;;;12.95;100.00
29549;BME280;16487;53.094;8.800;2023-04-28T08:28:44;101421.00;;;12.71;100.00
29549;BME280;16487;53.094;8.800;2023-04-28T08:31:11;101419.75;;;12.88;100.00
29549;BME280;16487;53.094;8.800;2023-04-28T08:33:39;101428.22;;;13.13;100.00
29549;BME280;16487;53.094;8.800;2023-04-28T08:36:06;101418.06;;;12.91;100.00
29549;BME280;16487;53.094;8.800;2023-04-28T08:38:34;101414.94;;;13.17;100.00
29549;BME280;16487;53.094;8.800;2023-04-28T08:41:03;101409.66;;;12.91;100.00
29549;BME280;16487;53.094;8.800;2023-04-28T08:43:31;101410.53;;;13.04;100.00
29549;BME280;16487;53.094;8.800;2023-04-28T08:46:04;101410.44;;;13.07;100.00
29549;BME280;16487;53.094;8.800;2023-04-28T08:48:38;101418.84;;;12.91;100.00
29549;BME280;16487;53.094;8.800;2023-04-28T08:51:06;101417.84;;;13.14;100.00
29549;BME280;16487;53.094;8.800;2023-04-28T08:53:36;101423.47;;;13.51;100.00
29549;BME280;16487;53.094;8.800;2023-04-28T08:56:25;101408.22;;;13.52;100.00
29549;BME280;16487;53.094;8.800;2023-04-28T08:58:54;101411.06;;;13.90;100.00
29549;BME280;16487;53.094;8.800;2023-04-28T09:01:22;101411.63;;;13.72;100.00
29549;BME280;16487;53.094;8.800;2023-04-28T09:03:50;101410.00;;;13.21;100.00
29549;BME280;16487;53.094;8.800;2023-04-28T09:06:20;101413.28;;;13.32;100.00
29549;BME280;16487;53.094;8.800;2023-04-28T09:08:47;101409.69;;;13.19;100.00
29549;BME280;16487;53.094;8.800;2023-04-28T09:11:15;101412.88;;;13.05;100.00
29549;BME280;16487;53.094;8.800;2023-04-28T09:13:42;101411.13;;;12.95;100.00
29549;BME280;16487;53.094;8.800;2023-04-28T09:16:10;101403.63;;;13.21;100.00
29549;BME280;16487;53.094;8.800;2023-04-28T09:18:39;101410.13;;;12.89;100.00
29549;BME280;16487;53.094;8.800;2023-04-28T09:21:21;101409.34;;;13.17;100.00
29549;BME280;16487;53.094;8.800;2023-04-28T09:23:49;101412.00;;;13.08;100.00
29549;BME280;16487;53.094;8.800;2023-04-28T09:26:16;101409.78;;;13.16;100.00
29549;BME280;16487;53.094;8.800;2023-04-28T09:28:43;101415.59;;;13.21;100.00
29549;BME280;16487;53.094;8.800;2023-04-28T09:31:21;101412.16;;;13.42;100.00
29549;BME280;16487;53.094;8.800;2023-04-28T09:33:57;101409.34;;;13.42;100.00
29549;BME280;16487;53.094;8.800;2023-04-28T09:36:27;101413.41;;;13.66;100.00
29549;BME280;16487;53.094;8.800;2023-04-28T09:38:57;101416.09;;;13.82;100.00
29549;BME280;16487;53.094;8.800;2023-04-28T09:41:34;101409.03;;;13.65;100.00
29549;BME280;16487;53.094;8.800;2023-04-28T09:44:12;101404.66;;;13.64;100.00
29549;BME280;16487;53.094;8.800;2023-04-28T09:46:40;101406.56;;;13.55;100.00
29549;BME280;16487;53.094;8.800;2023-04-28T09:49:09;101402.03;;;14.33;100.00
29549;BME280;16487;53.094;8.800;2023-04-28T09:51:37;101395.88;;;14.59;100.00
29549;BME280;16487;53.094;8.800;2023-04-28T09:54:04;101404.34;;;14.47;100.00
29549;BME280;16487;53.094;8.800;2023-04-28T09:56:33;101400.94;;;13.93;100.00
29549;BME280;16487;53.094;8.800;2023-04-28T09:59:01;101400.72;;;13.87;100.00
29549;BME280;16487;53.094;8.800;2023-04-28T10:01:32;101399.00;;;14.15;100.00
29549;BME280;16487;53.094;8.800;2023-04-28T10:03:59;101391.84;;;14.14;100.00
29549;BME280;16487;53.094;8.800;2023-04-28T10:06:29;101388.69;;;14.37;100.00
29549;BME280;16487;53.094;8.800;2023-04-28T10:08:57;101384.97;;;14.15;100.00
29549;BME280;16487;53.094;8.800;2023-04-28T10:11:26;101380.72;;;14.23;100.00
29549;BME280;16487;53.094;8.800;2023-04-28T10:13:53;101376.41;;;13.97;100.00
29549;BME280;16487;53.094;8.800;2023-04-28T10:16:21;101373.31;;;14.84;100.00
29549;BME280;16487;53.094;8.800;2023-04-28T10:18:49;101376.84;;;14.76;100.00
29549;BME280;16487;53.094;8.800;2023-04-28T10:21:18;101367.91;;;15.42;100.00
29549;BME280;16487;53.094;8.800;2023-04-28T10:24:02;101376.00;;;15.40;100.00
29549;BME280;16487;53.094;8.800;2023-04-28T10:27:06;101366.09;;;15.05;100.00
29549;BME280;16487;53.094;8.800;2023-04-28T10:29:34;101368.97;;;15.14;100.00
29549;BME280;16487;53.094;8.800;2023-04-28T10:32:15;101360.72;;;15.41;100.00
29549;BME280;16487;53.094;8.800;2023-04-28T10:34:43;101364.81;;;14.97;100.00
29549;BME280;16487;53.094;8.800;2023-04-28T10:37:11;101363.78;;;14.60;100.00
29549;BME280;16487;53.094;8.800;2023-04-28T10:39:40;101359.09;;;14.57;100.00
29549;BME280;16487;53.094;8.800;2023-04-28T10:48:54;101341.69;;;13.82;100.00
29549;BME280;16487;53.094;8.800;2023-04-28T10:51:29;101338.53;;;13.79;100.00
29549;BME280;16487;53.094;8.800;2023-04-28T10:54:23;101335.09;;;14.10;100.00
29549;BME280;16487;53.094;8.800;2023-04-28T10:57:20;101327.34;;;13.79;100.00
29549;BME280;16487;53.094;8.800;2023-04-28T10:59:48;101332.50;;;13.56;100.00
29549;BME280;16487;53.094;8.800;2023-04-28T11:02:35;101326.91;;;13.68;100.00
29549;BME280;16487;53.094;8.800;2023-04-28T11:05:13;101317.06;;;13.51;100.00
29549;BME280;16487;53.094;8.800;2023-04-28T11:11:18;101315.00;;;13.64;100.00
29549;BME280;16487;53.094;8.800;2023-04-28T11:13:47;101320.81;;;13.82;100.00
29549;BME280;16487;53.094;8.800;2023-04-28T11:16:17;101317.44;;;13.88;100.00
29549;BME280;16487;53.094;8.800;2023-04-28T11:18:51;101312.88;;;13.81;100.00
29549;BME280;16487;53.094;8.800;2023-04-28T11:21:23;101307.69;;;13.92;100.00
29549;BME280;16487;53.094;8.800;2023-04-28T11:23:51;101303.16;;;14.07;100.00
29549;BME280;16487;53.094;8.800;2023-04-28T11:26:19;101288.44;;;14.16;100.00
29549;BME280;16487;53.094;8.800;2023-04-28T11:28:49;101291.22;;;14.28;100.00
29549;BME280;16487;53.094;8.800;2023-04-28T11:31:17;101290.56;;;14.46;100.00
29549;BME280;16487;53.094;8.800;2023-04-28T11:33:48;101293.06;;;14.44;100.00
29549;BME280;16487;53.094;8.800;2023-04-28T11:36:31;101286.72;;;14.31;100.00
29549;BME280;16487;53.094;8.800;2023-04-28T11:39:00;101285.44;;;14.10;100.00
29549;BME280;16487;53.094;8.800;2023-04-28T11:41:27;101282.53;;;14.01;100.00
29549;BME280;16487;53.094;8.800;2023-04-28T11:43:56;101283.91;;;13.97;100.00
29549;BME280;16487;53.094;8.800;2023-04-28T11:46:24;101287.63;;;13.94;100.00
29549;BME280;16487;53.094;8.800;2023-04-28T11:48:59;101286.03;;;13.93;100.00
29549;BME280;16487;53.094;8.800;2023-04-28T11:51:32;101285.66;;;13.82;100.00
29549;BME280;16487;53.094;8.800;2023-04-28T11:54:00;101290.59;;;14.12;100.00
29549;BME280;16487;53.094;8.800;2023-04-28T11:56:28;101288.59;;;14.00;100.00
29549;BME280;16487;53.094;8.800;2023-04-28T11:59:05;101283.47;;;13.98;100.00
29549;BME280;16487;53.094;8.800;2023-04-28T12:01:34;101289.50;;;14.09;100.00
29549;BME280;16487;53.094;8.800;2023-04-28T12:04:10;101290.81;;;14.05;100.00
29549;BME280;16487;53.094;8.800;2023-04-28T12:06:38;101289.59;;;14.06;100.00
29549;BME280;16487;53.094;8.800;2023-04-28T12:09:14;101272.13;;;14.02;100.00
29549;BME280;16487;53.094;8.800;2023-04-28T12:11:51;101274.03;;;14.39;100.00
29549;BME280;16487;53.094;8.800;2023-04-28T12:14:20;101270.63;;;14.44;100.00
29549;BME280;16487;53.094;8.800;2023-04-28T12:16:48;101265.50;;;14.73;100.00
29549;BME280;16487;53.094;8.800;2023-04-28T12:19:16;101265.31;;;14.98;100.00
29549;BME280;16487;53.094;8.800;2023-04-28T12:21:43;101258.44;;;14.90;100.00
29549;BME280;16487;53.094;8.800;2023-04-28T12:24:25;101258.69;;;14.83;100.00
29549;BME280;16487;53.094;8.800;2023-04-28T12:26:52;101252.44;;;15.19;100.00
29549;BME280;16487;53.094;8.800;2023-04-28T12:29:38;101243.44;;;15.33;100.00
29549;BME280;16487;53.094;8.800;2023-04-28T12:32:07;101236.38;;;15.59;100.00
29549;BME280;16487;53.094;8.800;2023-04-28T12:34:35;101242.94;;;15.56;100.00
29549;BME280;16487;53.094;8.800;2023-04-28T12:37:03;101245.66;;;15.29;100.00
29549;BME280;16487;53.094;8.800;2023-04-28T12:39:31;101235.28;;;15.65;100.00
29549;BME280;16487;53.094;8.800;2023-04-28T12:41:59;101246.25;;;15.24;100.00
29549;BME280;16487;53.094;8.800;2023-04-28T12:44:26;101243.44;;;15.24;100.00
29549;BME280;16487;53.094;8.800;2023-04-28T12:46:55;101245.13;;;15.61;100.00
29549;BME280;16487;53.094;8.800;2023-04-28T12:49:22;101246.84;;;15.58;100.00
29549;BME280;16487;53.094;8.800;2023-04-28T12:51:50;101244.06;;;15.28;100.00
29549;BME280;16487;53.094;8.800;2023-04-28T12:54:17;101234.69;;;15.79;100.00
29549;BME280;16487;53.094;8.800;2023-04-28T12:56:45;101234.06;;;15.93;100.00
29549;BME280;16487;53.094;8.800;2023-04-28T12:59:12;101234.97;;;15.72;100.00
29549;BME280;16487;53.094;8.800;2023-04-28T13:01:39;101231.88;;;15.79;100.00
29549;BME280;16487;53.094;8.800;2023-04-28T13:04:09;101224.53;;;15.82;100.00
29549;BME280;16487;53.094;8.800;2023-04-28T13:06:36;101225.63;;;15.84;100.00
29549;BME280;16487;53.094;8.800;2023-04-28T13:09:04;101220.81;;;16.03;100.00